createdAt,value
2023-04-28T00:02:31.896Z,8.70
2023-04-28T00:07:33.764Z,7.82
2023-04-28T00:12:35.599Z,11.13
2023-04-28T00:17:37.455Z,6.63
2023-04-28T00:22:39.268Z,7.60
2023-04-28T00:27:41.037Z,8.85
2023-04-28T00:32:42.817Z,8.73
2023-04-28T00:37:44.930Z,6.35
2023-04-28T00:42:46.786Z,7.35
2023-04-28T00:47:48.612Z,9.70
2023-04-28T00:52:52.394Z,12.57
2023-04-28T00:57:56.368Z,12.63
2023-04-28T01:02:58.996Z,11.52
2023-04-28T01:08:01.012Z,10.98
2023-04-28T01:13:02.714Z,8.98
2023-04-28T01:18:04.818Z,11.15
2023-04-28T01:23:13.609Z,6.68
2023-04-28T01:28:15.452Z,9.30
2023-04-28T01:33:17.206Z,12.68
2023-04-28T01:38:19.012Z,10.00
2023-04-28T01:43:20.901Z,8.98
2023-04-28T01:48:22.651Z,9.90
2023-04-28T01:53:24.939Z,7.45
2023-04-28T01:58:26.800Z,6.10
2023-04-28T02:03:28.863Z,5.53
2023-04-28T02:08:30.828Z,8.13
2023-04-28T02:13:32.508Z,9.32
2023-04-28T02:18:36.006Z,8.52
2023-04-28T02:23:38.017Z,15.63
2023-04-28T02:28:39.774Z,7.47
2023-04-28T02:33:44.184Z,7.53
2023-04-28T02:38:45.830Z,9.68
2023-04-28T02:43:47.520Z,8.10
2023-04-28T02:48:49.255Z,4.93
2023-04-28T02:53:51.016Z,9.38
2023-04-28T02:58:52.995Z,7.97
2023-04-28T03:03:55.107Z,9.90
2023-04-28T03:08:57.023Z,8.38
2023-04-28T03:13:58.722Z,12.27
2023-04-28T03:19:00.809Z,12.00
2023-04-28T03:24:04.756Z,9.85
2023-04-28T03:29:07.182Z,8.10
2023-04-28T03:34:08.920Z,11.00
2023-04-28T03:39:10.801Z,15.85
2023-04-28T03:44:12.662Z,11.98
2023-04-28T03:49:14.646Z,9.30
2023-04-28T03:54:16.762Z,12.18
2023-04-28T03:59:18.773Z,11.18
2023-04-28T04:04:20.987Z,9.27
2023-04-28T04:09:23.329Z,15.95
2023-04-28T04:14:25.109Z,11.30
2023-04-28T04:19:27.541Z,13.10
2023-04-28T04:24:29.250Z,8.82
2023-04-28T04:29:31.670Z,11.68
2023-04-28T04:34:33.392Z,11.65
2023-04-28T04:39:35.252Z,11.73
2023-04-28T04:44:37.364Z,19.70
2023-04-28T04:49:41.908Z,18.73
2023-04-28T04:54:43.944Z,13.40
2023-04-28T04:59:46.108Z,18.58
2023-04-28T05:04:47.899Z,25.48
2023-04-28T05:09:49.757Z,22.95
2023-04-28T05:14:51.781Z,24.20
2023-04-28T05:19:53.526Z,16.73
2023-04-28T05:24:55.853Z,18.35
2023-04-28T05:29:57.735Z,21.58
2023-04-28T05:35:00.082Z,16.13
2023-04-28T05:40:01.827Z,13.95
2023-04-28T05:45:04.048Z,17.75
2023-04-28T05:50:06.464Z,13.32
2023-04-28T05:55:08.565Z,16.75
2023-04-28T06:00:10.980Z,17.90
2023-04-28T06:05:13.249Z,14.73
2023-04-28T06:10:15.164Z,17.30
2023-04-28T06:15:17.041Z,16.08
2023-04-28T06:20:19.344Z,14.90
2023-04-28T06:25:21.433Z,19.35
2023-04-28T06:30:23.832Z,21.02
2023-04-28T06:35:25.785Z,16.13
2023-04-28T06:40:28.031Z,17.90
2023-04-28T06:45:30.688Z,21.73
2023-04-28T06:50:32.469Z,96.57
2023-04-28T06:55:35.138Z,22.42
2023-04-28T07:00:37.123Z,18.23
2023-04-28T07:05:39.006Z,14.85
2023-04-28T07:10:40.700Z,24.15
2023-04-28T07:15:43.000Z,14.45
2023-04-28T07:20:44.751Z,11.10
2023-04-28T07:25:46.559Z,13.88
2023-04-28T07:30:48.340Z,10.30
2023-04-28T07:35:52.873Z,8.00
2023-04-28T07:40:55.262Z,8.35
2023-04-28T07:45:57.228Z,14.63
2023-04-28T07:50:58.985Z,11.02
2023-04-28T07:56:01.157Z,10.18
2023-04-28T08:01:03.241Z,20.75
2023-04-28T08:06:05.155Z,20.40
2023-04-28T08:11:07.816Z,18.38
2023-04-28T08:16:09.727Z,13.98
2023-04-28T08:21:11.727Z,14.32
2023-04-28T08:26:13.556Z,11.93
2023-04-28T08:31:15.675Z,13.60
2023-04-28T08:36:18.339Z,10.18
2023-04-28T08:41:21.756Z,11.52
2023-04-28T08:46:27.363Z,9.75
2023-04-28T08:51:40.877Z,8.60
2023-04-28T08:56:45.504Z,6.15
2023-04-28T09:01:49.676Z,9.98
2023-04-28T09:06:51.551Z,5.25
2023-04-28T09:11:59.575Z,3.25
2023-04-28T09:17:03.096Z,3.17
2023-04-28T09:22:21.789Z,4.88
2023-04-28T09:27:29.589Z,3.03
2023-04-28T09:32:31.813Z,4.85
2023-04-28T09:37:34.670Z,3.70
2023-04-28T09:42:44.222Z,3.58
2023-04-28T09:47:47.980Z,4.57
2023-04-28T09:52:59.624Z,2.95
2023-04-28T09:58:06.135Z,4.45
2023-04-28T10:03:10.692Z,2.78
2023-04-28T10:08:13.718Z,2.03
2023-04-28T10:13:17.531Z,3.25
2023-04-28T10:18:19.636Z,5.57
2023-04-28T10:23:27.606Z,4.25
2023-04-28T10:28:29.884Z,2.13
2023-04-28T10:33:32.336Z,4.75
2023-04-28T10:38:35.223Z,2.47
2023-04-28T10:43:40.221Z,3.22
2023-04-28T10:48:48.165Z,4.40
2023-04-28T10:53:51.288Z,8.93
2023-04-28T10:58:54.441Z,2.90
2023-04-28T11:04:04.814Z,4.82
2023-04-28T11:09:12.778Z,3.05
2023-04-28T11:14:18.391Z,3.95
2023-04-28T11:19:25.625Z,4.95
2023-04-28T11:24:29.337Z,3.97
2023-04-28T11:29:38.953Z,5.88
2023-04-28T11:34:41.130Z,5.13
2023-04-28T11:39:43.590Z,5.90
2023-04-28T11:44:52.972Z,5.00
2023-04-28T11:49:54.733Z,4.38
2023-04-28T11:54:59.359Z,5.25
2023-04-28T12:00:14.996Z,3.60
2023-04-28T12:05:17.329Z,6.28
2023-04-28T12:10:19.909Z,5.00
2023-04-28T12:15:22.969Z,2.15
2023-04-28T12:20:35.831Z,1.92
2023-04-28T12:25:45.049Z,4.40
2023-04-28T12:30:47.151Z,6.40
2023-04-28T12:35:49.913Z,2.17
2023-04-28T12:40:52.528Z,2.13
2023-04-28T12:45:57.178Z,1.85
2023-04-28T12:50:59.094Z,2.03
2023-04-28T12:56:01.004Z,3.17
2023-04-28T13:01:03.021Z,2.88
2023-04-28T13:06:45.101Z,2.55
2023-04-28T13:11:47.380Z,1.77
2023-04-28T13:16:49.596Z,2.28
2023-04-28T13:21:52.266Z,1.48
2023-04-28T13:26:54.044Z,1.48
2023-04-28T13:31:56.316Z,1.80
2023-04-28T13:37:01.863Z,0.80
2023-04-28T13:42:04.033Z,1.30
2023-04-28T13:47:09.414Z,1.80
2023-04-28T13:52:14.757Z,2.63
2023-04-28T13:57:16.817Z,2.47
2023-04-28T14:02:23.114Z,5.47
2023-04-28T14:07:25.984Z,1.88
2023-04-28T14:17:57.619Z,3.20
2023-04-28T14:23:05.951Z,3.13
2023-04-28T14:28:17.234Z,7.25
2023-04-28T14:38:25.523Z,1.85
2023-04-28T14:43:33.221Z,0.90
2023-04-28T14:48:45.365Z,1.30
2023-04-28T14:53:50.291Z,1.17
2023-04-28T14:58:53.088Z,1.75
2023-04-28T15:03:55.183Z,13.18
2023-04-28T15:08:57.312Z,2.08
2023-04-28T15:13:59.634Z,9.73
2023-04-28T15:19:01.457Z,5.88
2023-04-28T15:24:04.132Z,13.75
2023-04-28T15:29:05.900Z,3.70
2023-04-28T15:34:07.892Z,5.97
2023-04-28T15:39:10.398Z,3.58
2023-04-28T15:44:12.280Z,4.78
2023-04-28T15:49:14.207Z,11.48
2023-04-28T15:54:16.110Z,4.50
2023-04-28T15:59:19.002Z,3.80
2023-04-28T16:04:21.054Z,1.30
2023-04-28T16:09:23.049Z,1.60
2023-04-28T16:14:25.059Z,1.10
2023-04-28T16:19:26.828Z,1.42
2023-04-28T16:24:28.919Z,1.08
2023-04-28T16:29:31.204Z,2.28
2023-04-28T16:34:33.216Z,2.42
2023-04-28T16:39:35.029Z,2.35
2023-04-28T16:44:37.041Z,34.25
2023-04-28T16:49:38.791Z,2.58
2023-04-28T16:54:40.864Z,31.27
2023-04-28T16:59:43.063Z,1.48
2023-04-28T17:04:45.033Z,1.20
2023-04-28T17:09:46.834Z,2.25
2023-04-28T17:14:50.551Z,10.80
2023-04-28T17:19:52.651Z,6.60
2023-04-28T17:24:54.536Z,3.85
2023-04-28T17:29:58.323Z,7.07
2023-04-28T17:35:00.185Z,10.77
2023-04-28T17:40:01.980Z,27.55
2023-04-28T17:45:04.849Z,6.43
2023-04-28T17:50:07.090Z,7.55
2023-04-28T17:55:09.008Z,5.25
2023-04-28T18:00:13.222Z,8.65
2023-04-28T18:05:17.315Z,12.75
2023-04-28T18:10:19.143Z,12.07
2023-04-28T18:15:21.119Z,5.85
2023-04-28T18:20:23.109Z,6.47
2023-04-28T18:25:24.973Z,14.38
2023-04-28T18:30:26.855Z,13.18
2023-04-28T18:35:28.609Z,7.35
2023-04-28T18:40:34.273Z,7.88
2023-04-28T18:45:40.956Z,5.47
2023-04-28T18:50:44.698Z,3.67
2023-04-28T18:55:46.536Z,10.25
2023-04-28T19:00:49.177Z,5.15
2023-04-28T19:05:55.984Z,12.48
2023-04-28T19:10:58.683Z,5.07
2023-04-28T19:16:01.053Z,16.27
2023-04-28T19:21:04.165Z,13.65
2023-04-28T19:26:06.151Z,13.40
2023-04-28T19:31:08.766Z,14.30
2023-04-28T19:36:10.752Z,7.53
2023-04-28T19:41:12.496Z,4.53
2023-04-28T19:46:15.187Z,7.43
2023-04-28T19:51:17.474Z,9.15
2023-04-28T19:56:20.509Z,8.13
2023-04-28T20:01:22.974Z,11.32
2023-04-28T20:06:24.703Z,17.67
2023-04-28T20:11:26.399Z,11.65
2023-04-28T20:16:28.289Z,15.57
2023-04-28T20:21:30.070Z,13.77
2023-04-28T20:26:32.363Z,16.17
2023-04-28T20:31:34.336Z,21.88
2023-04-28T20:36:36.140Z,21.33
2023-04-28T20:41:40.922Z,58.35
2023-04-28T20:46:44.952Z,85.32
2023-04-28T20:51:48.113Z,97.40
2023-04-28T20:56:49.886Z,36.55
2023-04-28T21:01:51.747Z,30.23
2023-04-28T21:06:53.570Z,22.15
2023-04-28T21:11:55.483Z,46.45
2023-04-28T21:16:57.258Z,9.43
2023-04-28T21:21:59.467Z,21.77
2023-04-28T21:27:02.904Z,7.90
2023-04-28T21:32:04.918Z,11.00
2023-04-28T21:37:06.624Z,10.57
2023-04-28T21:42:08.719Z,8.57
2023-04-28T21:47:10.512Z,10.50
2023-04-28T21:52:12.259Z,10.15
2023-04-28T21:57:15.815Z,16.15
2023-04-28T22:02:17.948Z,6.35
2023-04-28T22:07:20.189Z,12.65
2023-04-28T22:12:21.942Z,7.05
2023-04-28T22:17:23.699Z,13.35
2023-04-28T22:22:25.525Z,8.88
2023-04-28T22:27:27.690Z,6.28
2023-04-28T22:32:29.505Z,9.25
2023-04-28T22:37:31.279Z,5.50
2023-04-28T22:42:40.418Z,7.15
2023-04-28T22:47:42.876Z,12.02
2023-04-28T22:52:44.669Z,10.45
2023-04-28T22:57:46.479Z,11.98
2023-04-28T23:02:48.322Z,13.43
2023-04-28T23:07:50.171Z,12.35
2023-04-28T23:12:51.915Z,32.28
2023-04-28T23:17:53.719Z,11.48
2023-04-28T23:22:58.268Z,24.20
2023-04-28T23:28:00.039Z,41.80
2023-04-28T23:33:01.998Z,19.80
2023-04-28T23:38:03.942Z,58.78
2023-04-28T23:43:05.748Z,39.42
2023-04-28T23:48:08.159Z,56.75
2023-04-28T23:53:10.032Z,28.30
2023-04-28T23:58:11.937Z,24.50
